PWSweather.com
Personal Weather Stations
Station Observations
KMDSOLOM1
solomons, Solomons, MD 20688

solomonsSolomons, MD 20688

Lat: 38.32, Lon: -76.45

Elevation: 5

Station Type:

http://www.act-us.info/weather

High Low Average
Temperature 33.4°F0.8°C 23.8°F-4.6°C 28.5°F-1.9°C
Dew Point 14.8°F-9.6°C 7.5°F-13.6°C 10.7°F-11.8°C
Winds 26.0 mph 41.8 kmh 1.0 mph 1.6 kmh 9.0 mph SW14.5 kmh SW
Wind Gusts 32.0 mph51.5 kmh 4.0 mph6.4 kmh 17.0 mph27.4 kmh
Humidity 60% 35% 47%
Pressure 30.29 in1025.7 mb 30.04 in1017.3 mb -
Precipitation 0.00 in0.0 mm - -
Hour Temp Dew Point Humidity Winds Wind Gusts Pressure Precip Precip Rate Daily Precip Total
12:00 AM 30.1°F-1.1°C 13.7°F-10.2°C 50% 22.0 mph SW35.4 kmh SW 27.0 mph43.5 kmh 30.04 in1017.3 mb 0.00 in0.0 mm 0.00 in0.0 mm 0.00 in0.0 mm
12:05 AM 29.9°F-1.2°C 14.4°F-9.8°C 52% 20.0 mph WSW32.2 kmh WSW 27.0 mph43.5 kmh 30.04 in1017.3 mb 0.00 in0.0 mm 0.00 in0.0 mm 0.00 in0.0 mm
12:10 AM 29.8°F-1.2°C 14.8°F-9.6°C 53% 8.0 mph SW12.9 kmh SW 22.0 mph35.4 kmh 30.04 in1017.3 mb 0.00 in0.0 mm 0.00 in0.0 mm 0.00 in0.0 mm
12:15 AM 29.8°F-1.2°C 14.8°F-9.6°C 53% 11.0 mph SW17.7 kmh SW 25.0 mph40.2 kmh 30.04 in1017.3 mb 0.00 in0.0 mm 0.00 in0.0 mm 0.00 in0.0 mm
12:20 AM 29.7°F-1.3°C 14.2°F-9.9°C 52% 10.0 mph WSW16.1 kmh WSW 25.0 mph40.2 kmh 30.05 in1017.6 mb 0.00 in0.0 mm 0.00 in0.0 mm 0.00 in0.0 mm
12:25 AM 29.6°F-1.3°C 14.6°F-9.7°C 53% 11.0 mph SW17.7 kmh SW 25.0 mph40.2 kmh 30.05 in1017.6 mb 0.00 in0.0 mm 0.00 in0.0 mm 0.00 in0.0 mm
12:30 AM 29.4°F-1.4°C 13.5°F-10.3°C 51% 19.0 mph WSW30.6 kmh WSW 32.0 mph51.5 kmh 30.04 in1017.3 mb 0.00 in0.0 mm 0.00 in0.0 mm 0.00 in0.0 mm
12:35 AM 29.3°F-1.5°C 12.5°F-10.8°C 49% 13.0 mph SW20.9 kmh SW 32.0 mph51.5 kmh 30.05 in1017.6 mb 0.00 in0.0 mm 0.00 in0.0 mm 0.00 in0.0 mm
12:40 AM 29.2°F-1.6°C 12.0°F-11.1°C 48% 8.0 mph SW12.9 kmh SW 17.0 mph27.4 kmh 30.05 in1017.6 mb 0.00 in0.0 mm 0.00 in0.0 mm 0.00 in0.0 mm
12:45 AM 29.2°F-1.6°C 12.4°F-10.9°C 49% 11.0 mph SW17.7 kmh SW 28.0 mph45.1 kmh 30.06 in1017.9 mb 0.00 in0.0 mm 0.00 in0.0 mm 0.00 in0.0 mm
12:50 AM 29.0°F-1.7°C 10.8°F-11.8°C 46% 26.0 mph WSW41.8 kmh WSW 29.0 mph46.7 kmh 30.05 in1017.6 mb 0.00 in0.0 mm 0.00 in0.0 mm 0.00 in0.0 mm
12:55 AM 29.0°F-1.7°C 12.3°F-10.9°C 49% 15.0 mph SW24.1 kmh SW 25.0 mph40.2 kmh 30.05 in1017.6 mb 0.00 in0.0 mm 0.00 in0.0 mm 0.00 in0.0 mm
01:00 AM 28.9°F-1.7°C 11.7°F-11.3°C 48% 9.0 mph SW14.5 kmh SW 28.0 mph45.1 kmh 30.06 in1017.9 mb 0.00 in0.0 mm 0.00 in0.0 mm 0.00 in0.0 mm
01:05 AM 28.9°F-1.7°C 13.1°F-10.5°C 51% 13.0 mph SW20.9 kmh SW 28.0 mph45.1 kmh 30.06 in1017.9 mb 0.00 in0.0 mm 0.00 in0.0 mm 0.00 in0.0 mm
01:10 AM 28.9°F-1.7°C 12.6°F-10.8°C 50% 13.0 mph SW20.9 kmh SW 23.0 mph37.0 kmh 30.06 in1017.9 mb 0.00 in0.0 mm 0.00 in0.0 mm 0.00 in0.0 mm
01:15 AM 28.8°F-1.8°C 11.6°F-11.3°C 48% 12.0 mph SW19.3 kmh SW 26.0 mph41.8 kmh 30.06 in1017.9 mb 0.00 in0.0 mm 0.00 in0.0 mm 0.00 in0.0 mm
01:20 AM 28.7°F-1.8°C 12.0°F-11.1°C 49% 4.0 mph SW6.4 kmh SW 26.0 mph41.8 kmh 30.06 in1017.9 mb 0.00 in0.0 mm 0.00 in0.0 mm 0.00 in0.0 mm
01:25 AM 28.7°F-1.8°C 12.9°F-10.6°C 51% 13.0 mph SW20.9 kmh SW 24.0 mph38.6 kmh 30.06 in1017.9 mb 0.00 in0.0 mm 0.00 in0.0 mm 0.00 in0.0 mm
01:30 AM 28.6°F-1.9°C 12.3°F-10.9°C 50% 12.0 mph SSW19.3 kmh SSW 24.0 mph38.6 kmh 30.06 in1017.9 mb 0.00 in0.0 mm 0.00 in0.0 mm 0.00 in0.0 mm
01:35 AM 28.5°F-1.9°C 12.7°F-10.7°C 51% 9.0 mph SW14.5 kmh SW 24.0 mph38.6 kmh 30.06 in1017.9 mb 0.00 in0.0 mm 0.00 in0.0 mm 0.00 in0.0 mm
01:40 AM 28.5°F-1.9°C 12.2°F-11.0°C 50% 15.0 mph WSW24.1 kmh WSW 26.0 mph41.8 kmh 30.06 in1017.9 mb 0.00 in0.0 mm 0.00 in0.0 mm 0.00 in0.0 mm
01:45 AM 28.5°F-1.9°C 12.2°F-11.0°C 50% 11.0 mph SW17.7 kmh SW 31.0 mph49.9 kmh 30.06 in1017.9 mb 0.00 in0.0 mm 0.00 in0.0 mm 0.00 in0.0 mm
01:50 AM 28.4°F-2.0°C 12.6°F-10.8°C 51% 21.0 mph SW33.8 kmh SW 31.0 mph49.9 kmh 30.06 in1017.9 mb 0.00 in0.0 mm 0.00 in0.0 mm 0.00 in0.0 mm
01:55 AM 28.3°F-2.1°C 12.9°F-10.6°C 52% 7.0 mph WSW11.3 kmh WSW 13.0 mph20.9 kmh 30.06 in1017.9 mb 0.00 in0.0 mm 0.00 in0.0 mm 0.00 in0.0 mm
02:00 AM 28.1°F-2.2°C 12.8°F-10.7°C 52% 5.0 mph WSW8.0 kmh WSW 19.0 mph30.6 kmh 30.06 in1017.9 mb 0.00 in0.0 mm 0.00 in0.0 mm 0.00 in0.0 mm
02:05 AM 28.0°F-2.2°C 12.7°F-10.7°C 52% 9.0 mph WSW14.5 kmh WSW 19.0 mph30.6 kmh 30.07 in1018.3 mb 0.00 in0.0 mm 0.00 in0.0 mm 0.00 in0.0 mm
02:10 AM 27.8°F-2.3°C 12.5°F-10.8°C 52% 8.0 mph WSW12.9 kmh WSW 20.0 mph32.2 kmh 30.07 in1018.3 mb 0.00 in0.0 mm 0.00 in0.0 mm 0.00 in0.0 mm
02:15 AM 27.8°F-2.3°C 12.9°F-10.6°C 53% 11.0 mph SW17.7 kmh SW 20.0 mph32.2 kmh 30.07 in1018.3 mb 0.00 in0.0 mm 0.00 in0.0 mm 0.00 in0.0 mm
02:20 AM 27.7°F-2.4°C 12.4°F-10.9°C 52% 8.0 mph SW12.9 kmh SW 20.0 mph32.2 kmh 30.07 in1018.3 mb 0.00 in0.0 mm 0.00 in0.0 mm 0.00 in0.0 mm
02:25 AM 27.7°F-2.4°C 13.2°F-10.4°C 54% 9.0 mph WSW14.5 kmh WSW 14.0 mph22.5 kmh 30.07 in1018.3 mb 0.00 in0.0 mm 0.00 in0.0 mm 0.00 in0.0 mm
02:30 AM 27.7°F-2.4°C 12.8°F-10.7°C 53% 8.0 mph WSW12.9 kmh WSW 14.0 mph22.5 kmh 30.08 in1018.6 mb 0.00 in0.0 mm 0.00 in0.0 mm 0.00 in0.0 mm
02:35 AM 27.6°F-2.4°C 13.1°F-10.5°C 54% 17.0 mph SW27.4 kmh SW 18.0 mph29.0 kmh 30.08 in1018.6 mb 0.00 in0.0 mm 0.00 in0.0 mm 0.00 in0.0 mm
02:40 AM 27.6°F-2.4°C 11.9°F-11.2°C 51% 11.0 mph WSW17.7 kmh WSW 15.0 mph24.1 kmh 30.08 in1018.6 mb 0.00 in0.0 mm 0.00 in0.0 mm 0.00 in0.0 mm
02:45 AM 27.4°F-2.6°C 12.1°F-11.1°C 52% 14.0 mph SW22.5 kmh SW 16.0 mph25.7 kmh 30.08 in1018.6 mb 0.00 in0.0 mm 0.00 in0.0 mm 0.00 in0.0 mm
02:50 AM 27.3°F-2.6°C 12.4°F-10.9°C 53% 10.0 mph WSW16.1 kmh WSW 18.0 mph29.0 kmh 30.08 in1018.6 mb 0.00 in0.0 mm 0.00 in0.0 mm 0.00 in0.0 mm
02:55 AM 27.3°F-2.6°C 12.9°F-10.6°C 54% 10.0 mph WSW16.1 kmh WSW 10.0 mph16.1 kmh 30.07 in1018.3 mb 0.00 in0.0 mm 0.00 in0.0 mm 0.00 in0.0 mm
03:00 AM 27.2°F-2.7°C 12.8°F-10.7°C 54% 10.0 mph WSW16.1 kmh WSW 20.0 mph32.2 kmh 30.07 in1018.3 mb 0.00 in0.0 mm 0.00 in0.0 mm 0.00 in0.0 mm
03:05 AM 27.1°F-2.7°C 12.3°F-10.9°C 53% 15.0 mph SW24.1 kmh SW 22.0 mph35.4 kmh 30.07 in1018.3 mb 0.00 in0.0 mm 0.00 in0.0 mm 0.00 in0.0 mm
03:10 AM 27.0°F-2.8°C 12.6°F-10.8°C 54% 23.0 mph WSW37.0 kmh WSW 23.0 mph37.0 kmh 30.07 in1018.3 mb 0.00 in0.0 mm 0.00 in0.0 mm 0.00 in0.0 mm
03:15 AM 27.1°F-2.7°C 13.1°F-10.5°C 55% 12.0 mph SW19.3 kmh SW 23.0 mph37.0 kmh 30.08 in1018.6 mb 0.00 in0.0 mm 0.00 in0.0 mm 0.00 in0.0 mm
03:20 AM 27.1°F-2.7°C 12.3°F-10.9°C 53% 9.0 mph WSW14.5 kmh WSW 23.0 mph37.0 kmh 30.08 in1018.6 mb 0.00 in0.0 mm 0.00 in0.0 mm 0.00 in0.0 mm
03:25 AM 27.0°F-2.8°C 12.6°F-10.8°C 54% 14.0 mph SW22.5 kmh SW 21.0 mph33.8 kmh 30.08 in1018.6 mb 0.00 in0.0 mm 0.00 in0.0 mm 0.00 in0.0 mm
03:30 AM 27.1°F-2.7°C 13.5°F-10.3°C 56% 14.0 mph SW22.5 kmh SW 22.0 mph35.4 kmh 30.08 in1018.6 mb 0.00 in0.0 mm 0.00 in0.0 mm 0.00 in0.0 mm
03:35 AM 27.0°F-2.8°C 13.0°F-10.6°C 55% 19.0 mph SW30.6 kmh SW 27.0 mph43.5 kmh 30.08 in1018.6 mb 0.00 in0.0 mm 0.00 in0.0 mm 0.00 in0.0 mm
03:40 AM 26.9°F-2.8°C 13.3°F-10.4°C 56% 8.0 mph SW12.9 kmh SW 21.0 mph33.8 kmh 30.08 in1018.6 mb 0.00 in0.0 mm 0.00 in0.0 mm 0.00 in0.0 mm
03:45 AM 26.9°F-2.8°C 12.9°F-10.6°C 55% 16.0 mph SW25.7 kmh SW 22.0 mph35.4 kmh 30.08 in1018.6 mb 0.00 in0.0 mm 0.00 in0.0 mm 0.00 in0.0 mm
03:50 AM 26.8°F-2.9°C 13.2°F-10.4°C 56% 14.0 mph SW22.5 kmh SW 22.0 mph35.4 kmh 30.09 in1019.0 mb 0.00 in0.0 mm 0.00 in0.0 mm 0.00 in0.0 mm
03:55 AM 26.8°F-2.9°C 12.8°F-10.7°C 55% 7.0 mph SW11.3 kmh SW 14.0 mph22.5 kmh 30.09 in1019.0 mb 0.00 in0.0 mm 0.00 in0.0 mm 0.00 in0.0 mm
04:00 AM 26.7°F-2.9°C 12.7°F-10.7°C 55% 14.0 mph WSW22.5 kmh WSW 18.0 mph29.0 kmh 30.09 in1019.0 mb 0.00 in0.0 mm 0.00 in0.0 mm 0.00 in0.0 mm
04:05 AM 26.5°F-3.1°C 12.9°F-10.6°C 56% 13.0 mph WSW20.9 kmh WSW 18.0 mph29.0 kmh 30.09 in1019.0 mb 0.00 in0.0 mm 0.00 in0.0 mm 0.00 in0.0 mm
04:10 AM 26.4°F-3.1°C 13.3°F-10.4°C 57% 8.0 mph WSW12.9 kmh WSW 13.0 mph20.9 kmh 30.09 in1019.0 mb 0.00 in0.0 mm 0.00 in0.0 mm 0.00 in0.0 mm
04:15 AM 26.2°F-3.2°C 13.1°F-10.5°C 57% 8.0 mph WSW12.9 kmh WSW 17.0 mph27.4 kmh 30.10 in1019.3 mb 0.00 in0.0 mm 0.00 in0.0 mm 0.00 in0.0 mm
04:20 AM 26.1°F-3.3°C 12.6°F-10.8°C 56% 11.0 mph WSW17.7 kmh WSW 17.0 mph27.4 kmh 30.11 in1019.6 mb 0.00 in0.0 mm 0.00 in0.0 mm 0.00 in0.0 mm
04:25 AM 25.9°F-3.4°C 12.8°F-10.7°C 57% 10.0 mph WSW16.1 kmh WSW 15.0 mph24.1 kmh 30.10 in1019.3 mb 0.00 in0.0 mm 0.00 in0.0 mm 0.00 in0.0 mm
04:30 AM 25.8°F-3.4°C 13.9°F-10.1°C 60% 13.0 mph WSW20.9 kmh WSW 17.0 mph27.4 kmh 30.11 in1019.6 mb 0.00 in0.0 mm 0.00 in0.0 mm 0.00 in0.0 mm
04:35 AM 25.8°F-3.4°C 13.9°F-10.1°C 60% 13.0 mph SW20.9 kmh SW 17.0 mph27.4 kmh 30.11 in1019.6 mb 0.00 in0.0 mm 0.00 in0.0 mm 0.00 in0.0 mm
04:40 AM 25.7°F-3.5°C 13.8°F-10.1°C 60% 10.0 mph WSW16.1 kmh WSW 24.0 mph38.6 kmh 30.11 in1019.6 mb 0.00 in0.0 mm 0.00 in0.0 mm 0.00 in0.0 mm
04:45 AM 25.7°F-3.5°C 13.4°F-10.3°C 59% 17.0 mph SW27.4 kmh SW 28.0 mph45.1 kmh 30.10 in1019.3 mb 0.00 in0.0 mm 0.00 in0.0 mm 0.00 in0.0 mm
04:50 AM 25.6°F-3.6°C 13.3°F-10.4°C 59% 12.0 mph SW19.3 kmh SW 29.0 mph46.7 kmh 30.12 in1020.0 mb 0.00 in0.0 mm 0.00 in0.0 mm 0.00 in0.0 mm
04:55 AM 25.6°F-3.6°C 13.3°F-10.4°C 59% 7.0 mph SW11.3 kmh SW 26.0 mph41.8 kmh 30.12 in1020.0 mb 0.00 in0.0 mm 0.00 in0.0 mm 0.00 in0.0 mm
05:00 AM 25.5°F-3.6°C 13.2°F-10.4°C 59% 10.0 mph SW16.1 kmh SW 27.0 mph43.5 kmh 30.12 in1020.0 mb 0.00 in0.0 mm 0.00 in0.0 mm 0.00 in0.0 mm
05:05 AM 25.4°F-3.7°C 11.9°F-11.2°C 56% 17.0 mph SW27.4 kmh SW 27.0 mph43.5 kmh 30.12 in1020.0 mb 0.00 in0.0 mm 0.00 in0.0 mm 0.00 in0.0 mm
05:10 AM 25.3°F-3.7°C 11.8°F-11.2°C 56% 13.0 mph WSW20.9 kmh WSW 24.0 mph38.6 kmh 30.12 in1020.0 mb 0.00 in0.0 mm 0.00 in0.0 mm 0.00 in0.0 mm
05:15 AM 25.2°F-3.8°C 11.7°F-11.3°C 56% 11.0 mph SW17.7 kmh SW 24.0 mph38.6 kmh 30.12 in1020.0 mb 0.00 in0.0 mm 0.00 in0.0 mm 0.00 in0.0 mm
05:20 AM 25.1°F-3.8°C 11.6°F-11.3°C 56% 11.0 mph SW17.7 kmh SW 24.0 mph38.6 kmh 30.12 in1020.0 mb 0.00 in0.0 mm 0.00 in0.0 mm 0.00 in0.0 mm
05:25 AM 25.0°F-3.9°C 11.1°F-11.6°C 55% 17.0 mph SW27.4 kmh SW 20.0 mph32.2 kmh 30.13 in1020.3 mb 0.00 in0.0 mm 0.00 in0.0 mm 0.00 in0.0 mm
05:30 AM 24.9°F-3.9°C 11.0°F-11.7°C 55% 8.0 mph SW12.9 kmh SW 23.0 mph37.0 kmh 30.13 in1020.3 mb 0.00 in0.0 mm 0.00 in0.0 mm 0.00 in0.0 mm
05:35 AM 24.8°F-4.0°C 9.7°F-12.4°C 52% 15.0 mph WSW24.1 kmh WSW 25.0 mph40.2 kmh 30.14 in1020.7 mb 0.00 in0.0 mm 0.00 in0.0 mm 0.00 in0.0 mm
05:40 AM 24.7°F-4.1°C 10.4°F-12.0°C 54% 12.0 mph SW19.3 kmh SW 15.0 mph24.1 kmh 30.14 in1020.7 mb 0.00 in0.0 mm 0.00 in0.0 mm 0.00 in0.0 mm
05:45 AM 24.6°F-4.1°C 9.9°F-12.3°C 53% 16.0 mph SSW25.7 kmh SSW 29.0 mph46.7 kmh 30.15 in1021.0 mb 0.00 in0.0 mm 0.00 in0.0 mm 0.00 in0.0 mm
05:50 AM 24.5°F-4.2°C 10.3°F-12.1°C 54% 9.0 mph SW14.5 kmh SW 29.0 mph46.7 kmh 30.15 in1021.0 mb 0.00 in0.0 mm 0.00 in0.0 mm 0.00 in0.0 mm
05:55 AM 24.5°F-4.2°C 10.7°F-11.8°C 55% 6.0 mph SW9.7 kmh SW 16.0 mph25.7 kmh 30.15 in1021.0 mb 0.00 in0.0 mm 0.00 in0.0 mm 0.00 in0.0 mm
06:00 AM 24.4°F-4.2°C 10.6°F-11.9°C 55% 10.0 mph SW16.1 kmh SW 20.0 mph32.2 kmh 30.15 in1021.0 mb 0.00 in0.0 mm 0.00 in0.0 mm 0.00 in0.0 mm
06:05 AM 24.3°F-4.3°C 10.1°F-12.2°C 54% 11.0 mph SW17.7 kmh SW 22.0 mph35.4 kmh 30.15 in1021.0 mb 0.00 in0.0 mm 0.00 in0.0 mm 0.00 in0.0 mm
06:10 AM 24.2°F-4.3°C 10.4°F-12.0°C 55% 9.0 mph SW14.5 kmh SW 15.0 mph24.1 kmh 30.15 in1021.0 mb 0.00 in0.0 mm 0.00 in0.0 mm 0.00 in0.0 mm
06:15 AM 24.2°F-4.3°C 10.8°F-11.8°C 56% 12.0 mph SW19.3 kmh SW 16.0 mph25.7 kmh 30.15 in1021.0 mb 0.00 in0.0 mm 0.00 in0.0 mm 0.00 in0.0 mm
06:20 AM 24.1°F-4.4°C 9.9°F-12.3°C 54% 11.0 mph SSW17.7 kmh SSW 27.0 mph43.5 kmh 30.15 in1021.0 mb 0.00 in0.0 mm 0.00 in0.0 mm 0.00 in0.0 mm
06:25 AM 24.0°F-4.4°C 9.8°F-12.3°C 54% 14.0 mph SW22.5 kmh SW 23.0 mph37.0 kmh 30.16 in1021.3 mb 0.00 in0.0 mm 0.00 in0.0 mm 0.00 in0.0 mm
06:30 AM 24.0°F-4.4°C 10.2°F-12.1°C 55% 13.0 mph SW20.9 kmh SW 23.0 mph37.0 kmh 30.16 in1021.3 mb 0.00 in0.0 mm 0.00 in0.0 mm 0.00 in0.0 mm
06:35 AM 24.0°F-4.4°C 11.0°F-11.7°C 57% 17.0 mph WSW27.4 kmh WSW 23.0 mph37.0 kmh 30.16 in1021.3 mb 0.00 in0.0 mm 0.00 in0.0 mm 0.00 in0.0 mm
06:40 AM 23.9°F-4.5°C 10.1°F-12.2°C 55% 8.0 mph SW12.9 kmh SW 14.0 mph22.5 kmh 30.17 in1021.7 mb 0.00 in0.0 mm 0.00 in0.0 mm 0.00 in0.0 mm
06:45 AM 23.8°F-4.6°C 10.0°F-12.2°C 55% 18.0 mph SW29.0 kmh SW 23.0 mph37.0 kmh 30.17 in1021.7 mb 0.00 in0.0 mm 0.00 in0.0 mm 0.00 in0.0 mm
06:50 AM 23.8°F-4.6°C 10.4°F-12.0°C 56% 5.0 mph SW8.0 kmh SW 23.0 mph37.0 kmh 30.17 in1021.7 mb 0.00 in0.0 mm 0.00 in0.0 mm 0.00 in0.0 mm
06:55 AM 23.8°F-4.6°C 10.0°F-12.2°C 55% 11.0 mph SW17.7 kmh SW 22.0 mph35.4 kmh 30.18 in1022.0 mb 0.00 in0.0 mm 0.00 in0.0 mm 0.00 in0.0 mm
07:00 AM 23.8°F-4.6°C 10.4°F-12.0°C 56% 13.0 mph SW20.9 kmh SW 22.0 mph35.4 kmh 30.18 in1022.0 mb 0.00 in0.0 mm 0.00 in0.0 mm 0.00 in0.0 mm
07:05 AM 23.8°F-4.6°C 9.6°F-12.4°C 54% 12.0 mph SW19.3 kmh SW 24.0 mph38.6 kmh 30.17 in1021.7 mb 0.00 in0.0 mm 0.00 in0.0 mm 0.00 in0.0 mm
07:10 AM 23.9°F-4.5°C 9.7°F-12.4°C 54% 20.0 mph S32.2 kmh S 21.0 mph33.8 kmh 30.18 in1022.0 mb 0.00 in0.0 mm 0.00 in0.0 mm 0.00 in0.0 mm
07:15 AM 23.8°F-4.6°C 9.2°F-12.7°C 53% 12.0 mph SW19.3 kmh SW 21.0 mph33.8 kmh 30.18 in1022.0 mb 0.00 in0.0 mm 0.00 in0.0 mm 0.00 in0.0 mm
07:20 AM 23.9°F-4.5°C 9.7°F-12.4°C 54% 16.0 mph SW25.7 kmh SW 21.0 mph33.8 kmh 30.18 in1022.0 mb 0.00 in0.0 mm 0.00 in0.0 mm 0.00 in0.0 mm
07:25 AM 23.9°F-4.5°C 10.1°F-12.2°C 55% 17.0 mph SSW27.4 kmh SSW 17.0 mph27.4 kmh 30.18 in1022.0 mb 0.00 in0.0 mm 0.00 in0.0 mm 0.00 in0.0 mm
07:30 AM 24.1°F-4.4°C 10.3°F-12.1°C 55% 12.0 mph SW19.3 kmh SW 17.0 mph27.4 kmh 30.19 in1022.4 mb 0.00 in0.0 mm 0.00 in0.0 mm 0.00 in0.0 mm
07:35 AM 24.0°F-4.4°C 9.8°F-12.3°C 54% 11.0 mph S17.7 kmh S 17.0 mph27.4 kmh 30.19 in1022.4 mb 0.00 in0.0 mm 0.00 in0.0 mm 0.00 in0.0 mm
07:40 AM 24.1°F-4.4°C 9.0°F-12.8°C 52% 13.0 mph SW20.9 kmh SW 23.0 mph37.0 kmh 30.19 in1022.4 mb 0.00 in0.0 mm 0.00 in0.0 mm 0.00 in0.0 mm
07:45 AM 24.2°F-4.3°C 8.7°F-12.9°C 51% 9.0 mph S14.5 kmh S 23.0 mph37.0 kmh 30.19 in1022.4 mb 0.00 in0.0 mm 0.00 in0.0 mm 0.00 in0.0 mm
07:50 AM 24.2°F-4.3°C 8.7°F-12.9°C 51% 17.0 mph S27.4 kmh S 23.0 mph37.0 kmh 30.19 in1022.4 mb 0.00 in0.0 mm 0.00 in0.0 mm 0.00 in0.0 mm
07:55 AM 24.2°F-4.3°C 9.6°F-12.4°C 53% 14.0 mph SW22.5 kmh SW 19.0 mph30.6 kmh 30.20 in1022.7 mb 0.00 in0.0 mm 0.00 in0.0 mm 0.00 in0.0 mm
08:00 AM 24.3°F-4.3°C 9.6°F-12.4°C 53% 9.0 mph SW14.5 kmh SW 19.0 mph30.6 kmh 30.20 in1022.7 mb 0.00 in0.0 mm 0.00 in0.0 mm 0.00 in0.0 mm
08:05 AM 24.3°F-4.3°C 8.8°F-12.9°C 51% 19.0 mph S30.6 kmh S 19.0 mph30.6 kmh 30.20 in1022.7 mb 0.00 in0.0 mm 0.00 in0.0 mm 0.00 in0.0 mm
08:10 AM 24.1°F-4.4°C 9.0°F-12.8°C 52% 12.0 mph SSW19.3 kmh SSW 12.0 mph19.3 kmh 30.22 in1023.4 mb 0.00 in0.0 mm 0.00 in0.0 mm 0.00 in0.0 mm
08:15 AM 24.3°F-4.3°C 10.1°F-12.2°C 54% 12.0 mph SW19.3 kmh SW 21.0 mph33.8 kmh 30.22 in1023.4 mb 0.00 in0.0 mm 0.00 in0.0 mm 0.00 in0.0 mm
08:20 AM 24.4°F-4.2°C 8.9°F-12.8°C 51% 11.0 mph S17.7 kmh S 23.0 mph37.0 kmh 30.21 in1023.0 mb 0.00 in0.0 mm 0.00 in0.0 mm 0.00 in0.0 mm
08:25 AM 24.5°F-4.2°C 9.8°F-12.3°C 53% 13.0 mph S20.9 kmh S 16.0 mph25.7 kmh 30.22 in1023.4 mb 0.00 in0.0 mm 0.00 in0.0 mm 0.00 in0.0 mm
08:30 AM 24.5°F-4.2°C 9.4°F-12.6°C 52% 16.0 mph SW25.7 kmh SW 21.0 mph33.8 kmh 30.22 in1023.4 mb 0.00 in0.0 mm 0.00 in0.0 mm 0.00 in0.0 mm
08:35 AM 24.2°F-4.3°C 8.7°F-12.9°C 51% 16.0 mph SSW25.7 kmh SSW 21.0 mph33.8 kmh 30.22 in1023.4 mb 0.00 in0.0 mm 0.00 in0.0 mm 0.00 in0.0 mm
08:40 AM 24.5°F-4.2°C 9.4°F-12.6°C 52% 11.0 mph SW17.7 kmh SW 20.0 mph32.2 kmh 30.22 in1023.4 mb 0.00 in0.0 mm 0.00 in0.0 mm 0.00 in0.0 mm
08:45 AM 24.5°F-4.2°C 8.1°F-13.3°C 49% 12.0 mph SSW19.3 kmh SSW 24.0 mph38.6 kmh 30.22 in1023.4 mb 0.00 in0.0 mm 0.00 in0.0 mm 0.00 in0.0 mm
08:50 AM 24.4°F-4.2°C 8.4°F-13.1°C 50% 14.0 mph SSW22.5 kmh SSW 24.0 mph38.6 kmh 30.22 in1023.4 mb 0.00 in0.0 mm 0.00 in0.0 mm 0.00 in0.0 mm
08:55 AM 24.6°F-4.1°C 9.1°F-12.7°C 51% 8.0 mph SSW12.9 kmh SSW 19.0 mph30.6 kmh 30.22 in1023.4 mb 0.00 in0.0 mm 0.00 in0.0 mm 0.00 in0.0 mm
09:00 AM 24.6°F-4.1°C 7.7°F-13.5°C 48% 16.0 mph SSW25.7 kmh SSW 19.0 mph30.6 kmh 30.23 in1023.7 mb 0.00 in0.0 mm 0.00 in0.0 mm 0.00 in0.0 mm
09:05 AM 24.8°F-4.0°C 8.8°F-12.9°C 50% 6.0 mph SW9.7 kmh SW 19.0 mph30.6 kmh 30.23 in1023.7 mb 0.00 in0.0 mm 0.00 in0.0 mm 0.00 in0.0 mm
09:10 AM 24.9°F-3.9°C 8.9°F-12.8°C 50% 15.0 mph SSW24.1 kmh SSW 16.0 mph25.7 kmh 30.23 in1023.7 mb 0.00 in0.0 mm 0.00 in0.0 mm 0.00 in0.0 mm
09:15 AM 25.1°F-3.8°C 9.1°F-12.7°C 50% 13.0 mph SW20.9 kmh SW 19.0 mph30.6 kmh 30.23 in1023.7 mb 0.00 in0.0 mm 0.00 in0.0 mm 0.00 in0.0 mm
09:20 AM 24.8°F-4.0°C 7.9°F-13.4°C 48% 12.0 mph SSW19.3 kmh SSW 19.0 mph30.6 kmh 30.23 in1023.7 mb 0.00 in0.0 mm 0.00 in0.0 mm 0.00 in0.0 mm
09:25 AM 25.1°F-3.8°C 8.6°F-13.0°C 49% 16.0 mph SW25.7 kmh SW 18.0 mph29.0 kmh 30.22 in1023.4 mb 0.00 in0.0 mm 0.00 in0.0 mm 0.00 in0.0 mm
09:30 AM 25.3°F-3.7°C 7.9°F-13.4°C 47% 12.0 mph WSW19.3 kmh WSW 22.0 mph35.4 kmh 30.22 in1023.4 mb 0.00 in0.0 mm 0.00 in0.0 mm 0.00 in0.0 mm
09:35 AM 25.3°F-3.7°C 8.8°F-12.9°C 49% 15.0 mph SW24.1 kmh SW 22.0 mph35.4 kmh 30.22 in1023.4 mb 0.00 in0.0 mm 0.00 in0.0 mm 0.00 in0.0 mm
09:40 AM 25.4°F-3.7°C 8.5°F-13.1°C 48% 10.0 mph SSW16.1 kmh SSW 18.0 mph29.0 kmh 30.22 in1023.4 mb 0.00 in0.0 mm 0.00 in0.0 mm 0.00 in0.0 mm
09:45 AM 25.6°F-3.6°C 8.7°F-12.9°C 48% 15.0 mph SW24.1 kmh SW 20.0 mph32.2 kmh 30.23 in1023.7 mb 0.00 in0.0 mm 0.00 in0.0 mm 0.00 in0.0 mm
09:50 AM 25.8°F-3.4°C 8.8°F-12.9°C 48% 10.0 mph SW16.1 kmh SW 20.0 mph32.2 kmh 30.23 in1023.7 mb 0.00 in0.0 mm 0.00 in0.0 mm 0.00 in0.0 mm
09:55 AM 26.1°F-3.3°C 9.1°F-12.7°C 48% 10.0 mph SW16.1 kmh SW 18.0 mph29.0 kmh 30.23 in1023.7 mb 0.00 in0.0 mm 0.00 in0.0 mm 0.00 in0.0 mm
10:00 AM 25.7°F-3.5°C 7.8°F-13.4°C 46% 12.0 mph SW19.3 kmh SW 22.0 mph35.4 kmh 30.23 in1023.7 mb 0.00 in0.0 mm 0.00 in0.0 mm 0.00 in0.0 mm
10:05 AM 26.0°F-3.3°C 9.9°F-12.3°C 50% 12.0 mph SSW19.3 kmh SSW 22.0 mph35.4 kmh 30.23 in1023.7 mb 0.00 in0.0 mm 0.00 in0.0 mm 0.00 in0.0 mm
10:10 AM 26.2°F-3.2°C 9.2°F-12.7°C 48% 11.0 mph SW17.7 kmh SW 13.0 mph20.9 kmh 30.22 in1023.4 mb 0.00 in0.0 mm 0.00 in0.0 mm 0.00 in0.0 mm
10:15 AM 26.3°F-3.2°C 7.9°F-13.4°C 45% 11.0 mph SW17.7 kmh SW 23.0 mph37.0 kmh 30.22 in1023.4 mb 0.00 in0.0 mm 0.00 in0.0 mm 0.00 in0.0 mm
10:20 AM 26.4°F-3.1°C 9.4°F-12.6°C 48% 7.0 mph SW11.3 kmh SW 23.0 mph37.0 kmh 30.22 in1023.4 mb 0.00 in0.0 mm 0.00 in0.0 mm 0.00 in0.0 mm
10:25 AM 27.0°F-2.8°C 9.5°F-12.5°C 47% 13.0 mph SW20.9 kmh SW 17.0 mph27.4 kmh 30.22 in1023.4 mb 0.00 in0.0 mm 0.00 in0.0 mm 0.00 in0.0 mm
10:30 AM 26.4°F-3.1°C 7.5°F-13.6°C 44% 8.0 mph SW12.9 kmh SW 18.0 mph29.0 kmh 30.22 in1023.4 mb 0.00 in0.0 mm 0.00 in0.0 mm 0.00 in0.0 mm
10:35 AM 27.0°F-2.8°C 9.0°F-12.8°C 46% 8.0 mph SW12.9 kmh SW 18.0 mph29.0 kmh 30.22 in1023.4 mb 0.00 in0.0 mm 0.00 in0.0 mm 0.00 in0.0 mm
10:40 AM 27.6°F-2.4°C 9.5°F-12.5°C 46% 12.0 mph SW19.3 kmh SW 19.0 mph30.6 kmh 30.22 in1023.4 mb 0.00 in0.0 mm 0.00 in0.0 mm 0.00 in0.0 mm
10:45 AM 27.4°F-2.6°C 8.4°F-13.1°C 44% 8.0 mph SW12.9 kmh SW 19.0 mph30.6 kmh 30.22 in1023.4 mb 0.00 in0.0 mm 0.00 in0.0 mm 0.00 in0.0 mm
10:50 AM 28.0°F-2.2°C 10.9°F-11.7°C 48% 20.0 mph SW32.2 kmh SW 20.0 mph32.2 kmh 30.22 in1023.4 mb 0.00 in0.0 mm 0.00 in0.0 mm 0.00 in0.0 mm
10:55 AM 27.6°F-2.4°C 9.1°F-12.7°C 45% 8.0 mph SW12.9 kmh SW 15.0 mph24.1 kmh 30.22 in1023.4 mb 0.00 in0.0 mm 0.00 in0.0 mm 0.00 in0.0 mm
11:00 AM 28.0°F-2.2°C 10.4°F-12.0°C 47% 11.0 mph SW17.7 kmh SW 15.0 mph24.1 kmh 30.22 in1023.4 mb 0.00 in0.0 mm 0.00 in0.0 mm 0.00 in0.0 mm
11:05 AM 27.9°F-2.3°C 8.3°F-13.2°C 43% 9.0 mph SW14.5 kmh SW 17.0 mph27.4 kmh 30.22 in1023.4 mb 0.00 in0.0 mm 0.00 in0.0 mm 0.00 in0.0 mm
11:10 AM 28.5°F-1.9°C 9.9°F-12.3°C 45% 7.0 mph SW11.3 kmh SW 14.0 mph22.5 kmh 30.22 in1023.4 mb 0.00 in0.0 mm 0.00 in0.0 mm 0.00 in0.0 mm
11:15 AM 28.5°F-1.9°C 9.4°F-12.6°C 44% 7.0 mph SW11.3 kmh SW 19.0 mph30.6 kmh 30.22 in1023.4 mb 0.00 in0.0 mm 0.00 in0.0 mm 0.00 in0.0 mm
11:20 AM 28.8°F-1.8°C 9.7°F-12.4°C 44% 10.0 mph SW16.1 kmh SW 20.0 mph32.2 kmh 30.21 in1023.0 mb 0.00 in0.0 mm 0.00 in0.0 mm 0.00 in0.0 mm
11:25 AM 28.7°F-1.8°C 10.1°F-12.2°C 45% 14.0 mph SW22.5 kmh SW 19.0 mph30.6 kmh 30.21 in1023.0 mb 0.00 in0.0 mm 0.00 in0.0 mm 0.00 in0.0 mm
11:30 AM 28.8°F-1.8°C 9.7°F-12.4°C 44% 11.0 mph SW17.7 kmh SW 19.0 mph30.6 kmh 30.21 in1023.0 mb 0.00 in0.0 mm 0.00 in0.0 mm 0.00 in0.0 mm
11:35 AM 29.2°F-1.6°C 11.0°F-11.7°C 46% 11.0 mph SW17.7 kmh SW 19.0 mph30.6 kmh 30.22 in1023.4 mb 0.00 in0.0 mm 0.00 in0.0 mm 0.00 in0.0 mm
11:40 AM 29.5°F-1.4°C 11.3°F-11.5°C 46% 8.0 mph SW12.9 kmh SW 13.0 mph20.9 kmh 30.22 in1023.4 mb 0.00 in0.0 mm 0.00 in0.0 mm 0.00 in0.0 mm
11:45 AM 29.3°F-1.5°C 8.0°F-13.3°C 40% 7.0 mph SW11.3 kmh SW 19.0 mph30.6 kmh 30.21 in1023.0 mb 0.00 in0.0 mm 0.00 in0.0 mm 0.00 in0.0 mm
11:50 AM 29.4°F-1.4°C 9.7°F-12.4°C 43% 6.0 mph SW9.7 kmh SW 19.0 mph30.6 kmh 30.22 in1023.4 mb 0.00 in0.0 mm 0.00 in0.0 mm 0.00 in0.0 mm
11:55 AM 29.3°F-1.5°C 9.6°F-12.4°C 43% 10.0 mph S16.1 kmh S 12.0 mph19.3 kmh 30.21 in1023.0 mb 0.00 in0.0 mm 0.00 in0.0 mm 0.00 in0.0 mm
12:00 PM 29.5°F-1.4°C 9.8°F-12.3°C 43% 17.0 mph SSW27.4 kmh SSW 20.0 mph32.2 kmh 30.21 in1023.0 mb 0.00 in0.0 mm 0.00 in0.0 mm 0.00 in0.0 mm
12:05 PM 29.2°F-1.6°C 7.9°F-13.4°C 40% 10.0 mph S16.1 kmh S 20.0 mph32.2 kmh 30.21 in1023.0 mb 0.00 in0.0 mm 0.00 in0.0 mm 0.00 in0.0 mm
12:10 PM 29.8°F-1.2°C 10.6°F-11.9°C 44% 14.0 mph SW22.5 kmh SW 18.0 mph29.0 kmh 30.21 in1023.0 mb 0.00 in0.0 mm 0.00 in0.0 mm 0.00 in0.0 mm
12:15 PM 29.7°F-1.3°C 10.5°F-11.9°C 44% 6.0 mph SSW9.7 kmh SSW 18.0 mph29.0 kmh 30.21 in1023.0 mb 0.00 in0.0 mm 0.00 in0.0 mm 0.00 in0.0 mm
12:20 PM 29.9°F-1.2°C 9.1°F-12.7°C 41% 9.0 mph SW14.5 kmh SW 18.0 mph29.0 kmh 30.21 in1023.0 mb 0.00 in0.0 mm 0.00 in0.0 mm 0.00 in0.0 mm
12:25 PM 30.1°F-1.1°C 10.8°F-11.8°C 44% 14.0 mph S22.5 kmh S 18.0 mph29.0 kmh 30.21 in1023.0 mb 0.00 in0.0 mm 0.00 in0.0 mm 0.00 in0.0 mm
12:30 PM 30.1°F-1.1°C 8.7°F-12.9°C 40% 9.0 mph S14.5 kmh S 20.0 mph32.2 kmh 30.20 in1022.7 mb 0.00 in0.0 mm 0.00 in0.0 mm 0.00 in0.0 mm
12:35 PM 30.1°F-1.1°C 8.7°F-12.9°C 40% 13.0 mph S20.9 kmh S 27.0 mph43.5 kmh 30.21 in1023.0 mb 0.00 in0.0 mm 0.00 in0.0 mm 0.00 in0.0 mm
12:40 PM 30.0°F-1.1°C 9.7°F-12.4°C 42% 16.0 mph S25.7 kmh S 16.0 mph25.7 kmh 30.20 in1022.7 mb 0.00 in0.0 mm 0.00 in0.0 mm 0.00 in0.0 mm
12:45 PM 30.3°F-0.9°C 10.0°F-12.2°C 42% 8.0 mph SSW12.9 kmh SSW 18.0 mph29.0 kmh 30.20 in1022.7 mb 0.00 in0.0 mm 0.00 in0.0 mm 0.00 in0.0 mm
12:50 PM 30.2°F-1.0°C 9.4°F-12.6°C 41% 9.0 mph S14.5 kmh S 18.0 mph29.0 kmh 30.20 in1022.7 mb 0.00 in0.0 mm 0.00 in0.0 mm 0.00 in0.0 mm
12:55 PM 29.6°F-1.3°C 8.3°F-13.2°C 40% 7.0 mph S11.3 kmh S 16.0 mph25.7 kmh 30.20 in1022.7 mb 0.00 in0.0 mm 0.00 in0.0 mm 0.00 in0.0 mm
01:00 PM 30.8°F-0.7°C 10.4°F-12.0°C 42% 8.0 mph SSW12.9 kmh SSW 17.0 mph27.4 kmh 30.19 in1022.4 mb 0.00 in0.0 mm 0.00 in0.0 mm 0.00 in0.0 mm
01:05 PM 30.6°F-0.8°C 10.8°F-11.8°C 43% 9.0 mph SSW14.5 kmh SSW 17.0 mph27.4 kmh 30.19 in1022.4 mb 0.00 in0.0 mm 0.00 in0.0 mm 0.00 in0.0 mm
01:10 PM 30.8°F-0.7°C 10.4°F-12.0°C 42% 9.0 mph SSW14.5 kmh SSW 16.0 mph25.7 kmh 30.19 in1022.4 mb 0.00 in0.0 mm 0.00 in0.0 mm 0.00 in0.0 mm
01:15 PM 30.3°F-0.9°C 7.8°F-13.4°C 38% 11.0 mph S17.7 kmh S 17.0 mph27.4 kmh 30.19 in1022.4 mb 0.00 in0.0 mm 0.00 in0.0 mm 0.00 in0.0 mm
01:20 PM 30.9°F-0.6°C 9.4°F-12.6°C 40% 12.0 mph S19.3 kmh S 17.0 mph27.4 kmh 30.19 in1022.4 mb 0.00 in0.0 mm 0.00 in0.0 mm 0.00 in0.0 mm
01:25 PM 31.4°F-0.3°C 9.3°F-12.6°C 39% 13.0 mph S20.9 kmh S 19.0 mph30.6 kmh 30.19 in1022.4 mb 0.00 in0.0 mm 0.00 in0.0 mm 0.00 in0.0 mm
01:30 PM 31.3°F-0.4°C 10.3°F-12.1°C 41% 10.0 mph SSW16.1 kmh SSW 22.0 mph35.4 kmh 30.19 in1022.4 mb 0.00 in0.0 mm 0.00 in0.0 mm 0.00 in0.0 mm
01:35 PM 30.4°F-0.9°C 8.4°F-13.1°C 39% 11.0 mph S17.7 kmh S 22.0 mph35.4 kmh 30.19 in1022.4 mb 0.00 in0.0 mm 0.00 in0.0 mm 0.00 in0.0 mm
01:40 PM 31.2°F-0.4°C 9.7°F-12.4°C 40% 11.0 mph SW17.7 kmh SW 16.0 mph25.7 kmh 30.18 in1022.0 mb 0.00 in0.0 mm 0.00 in0.0 mm 0.00 in0.0 mm
01:45 PM 32.2°F0.1°C 12.2°F-11.0°C 43% 10.0 mph S16.1 kmh S 18.0 mph29.0 kmh 30.18 in1022.0 mb 0.00 in0.0 mm 0.00 in0.0 mm 0.00 in0.0 mm
01:50 PM 31.1°F-0.5°C 9.1°F-12.7°C 39% 6.0 mph S9.7 kmh S 18.0 mph29.0 kmh 30.18 in1022.0 mb 0.00 in0.0 mm 0.00 in0.0 mm 0.00 in0.0 mm
01:55 PM 32.5°F0.3°C 11.4°F-11.4°C 41% 7.0 mph SW11.3 kmh SW 13.0 mph20.9 kmh 30.17 in1021.7 mb 0.00 in0.0 mm 0.00 in0.0 mm 0.00 in0.0 mm
02:00 PM 32.3°F0.2°C 9.0°F-12.8°C 37% 6.0 mph S9.7 kmh S 17.0 mph27.4 kmh 30.17 in1021.7 mb 0.00 in0.0 mm 0.00 in0.0 mm 0.00 in0.0 mm
02:05 PM 32.3°F0.2°C 11.3°F-11.5°C 41% 6.0 mph SW9.7 kmh SW 17.0 mph27.4 kmh 30.17 in1021.7 mb 0.00 in0.0 mm 0.00 in0.0 mm 0.00 in0.0 mm
02:10 PM 32.7°F0.4°C 9.9°F-12.3°C 38% 7.0 mph SW11.3 kmh SW 11.0 mph17.7 kmh 30.17 in1021.7 mb 0.00 in0.0 mm 0.00 in0.0 mm 0.00 in0.0 mm
02:15 PM 32.1°F0.1°C 9.4°F-12.6°C 38% 5.0 mph WSW8.0 kmh WSW 14.0 mph22.5 kmh 30.16 in1021.3 mb 0.00 in0.0 mm 0.00 in0.0 mm 0.00 in0.0 mm
02:20 PM 32.1°F0.1°C 8.2°F-13.2°C 36% 11.0 mph S17.7 kmh S 19.0 mph30.6 kmh 30.17 in1021.7 mb 0.00 in0.0 mm 0.00 in0.0 mm 0.00 in0.0 mm
02:25 PM 32.1°F0.1°C 8.8°F-12.9°C 37% 14.0 mph SW22.5 kmh SW 16.0 mph25.7 kmh 30.17 in1021.7 mb 0.00 in0.0 mm 0.00 in0.0 mm 0.00 in0.0 mm
02:30 PM 32.2°F0.1°C 8.3°F-13.2°C 36% 9.0 mph S14.5 kmh S 17.0 mph27.4 kmh 30.17 in1021.7 mb 0.00 in0.0 mm 0.00 in0.0 mm 0.00 in0.0 mm
02:35 PM 32.8°F0.4°C 12.3°F-10.9°C 42% 15.0 mph SW24.1 kmh SW 17.0 mph27.4 kmh 30.16 in1021.3 mb 0.00 in0.0 mm 0.00 in0.0 mm 0.00 in0.0 mm
02:40 PM 32.8°F0.4°C 9.4°F-12.6°C 37% 6.0 mph SW9.7 kmh SW 9.0 mph14.5 kmh 30.16 in1021.3 mb 0.00 in0.0 mm 0.00 in0.0 mm 0.00 in0.0 mm
02:45 PM 32.6°F0.3°C 9.2°F-12.7°C 37% 12.0 mph S19.3 kmh S 16.0 mph25.7 kmh 30.16 in1021.3 mb 0.00 in0.0 mm 0.00 in0.0 mm 0.00 in0.0 mm
02:50 PM 32.7°F0.4°C 11.6°F-11.3°C 41% 6.0 mph SSW9.7 kmh SSW 16.0 mph25.7 kmh 30.16 in1021.3 mb 0.00 in0.0 mm 0.00 in0.0 mm 0.00 in0.0 mm
02:55 PM 33.2°F0.7°C 11.5°F-11.4°C 40% 12.0 mph S19.3 kmh S 12.0 mph19.3 kmh 30.16 in1021.3 mb 0.00 in0.0 mm 0.00 in0.0 mm 0.00 in0.0 mm
03:00 PM 33.2°F0.7°C 10.9°F-11.7°C 39% 9.0 mph SW14.5 kmh SW 14.0 mph22.5 kmh 30.16 in1021.3 mb 0.00 in0.0 mm 0.00 in0.0 mm 0.00 in0.0 mm
03:05 PM 33.1°F0.6°C 11.4°F-11.4°C 40% 9.0 mph SSW14.5 kmh SSW 15.0 mph24.1 kmh 30.16 in1021.3 mb 0.00 in0.0 mm 0.00 in0.0 mm 0.00 in0.0 mm
03:10 PM 33.0°F0.6°C 10.2°F-12.1°C 38% 6.0 mph SW9.7 kmh SW 10.0 mph16.1 kmh 30.16 in1021.3 mb 0.00 in0.0 mm 0.00 in0.0 mm 0.00 in0.0 mm
03:15 PM 33.0°F0.6°C 9.6°F-12.4°C 37% 13.0 mph SSW20.9 kmh SSW 13.0 mph20.9 kmh 30.16 in1021.3 mb 0.00 in0.0 mm 0.00 in0.0 mm 0.00 in0.0 mm
03:20 PM 33.0°F0.6°C 10.2°F-12.1°C 38% 10.0 mph SSW16.1 kmh SSW 15.0 mph24.1 kmh 30.16 in1021.3 mb 0.00 in0.0 mm 0.00 in0.0 mm 0.00 in0.0 mm
03:25 PM 32.7°F0.4°C 8.7°F-12.9°C 36% 8.0 mph SW12.9 kmh SW 13.0 mph20.9 kmh 30.16 in1021.3 mb 0.00 in0.0 mm 0.00 in0.0 mm 0.00 in0.0 mm
03:30 PM 32.6°F0.3°C 9.2°F-12.7°C 37% 8.0 mph S12.9 kmh S 19.0 mph30.6 kmh 30.16 in1021.3 mb 0.00 in0.0 mm 0.00 in0.0 mm 0.00 in0.0 mm
03:35 PM 32.9°F0.5°C 8.9°F-12.8°C 36% 8.0 mph SSE12.9 kmh SSE 20.0 mph32.2 kmh 30.16 in1021.3 mb 0.00 in0.0 mm 0.00 in0.0 mm 0.00 in0.0 mm
03:40 PM 32.8°F0.4°C 10.6°F-11.9°C 39% 11.0 mph SSW17.7 kmh SSW 16.0 mph25.7 kmh 30.16 in1021.3 mb 0.00 in0.0 mm 0.00 in0.0 mm 0.00 in0.0 mm
03:45 PM 32.3°F0.2°C 7.7°F-13.5°C 35% 6.0 mph SSW9.7 kmh SSW 16.0 mph25.7 kmh 30.17 in1021.7 mb 0.00 in0.0 mm 0.00 in0.0 mm 0.00 in0.0 mm
03:50 PM 33.0°F0.6°C 10.2°F-12.1°C 38% 10.0 mph SW16.1 kmh SW 17.0 mph27.4 kmh 30.16 in1021.3 mb 0.00 in0.0 mm 0.00 in0.0 mm 0.00 in0.0 mm
03:55 PM 33.0°F0.6°C 10.8°F-11.8°C 39% 6.0 mph SW9.7 kmh SW 13.0 mph20.9 kmh 30.16 in1021.3 mb 0.00 in0.0 mm 0.00 in0.0 mm 0.00 in0.0 mm
04:00 PM 33.2°F0.7°C 11.5°F-11.4°C 40% 7.0 mph SW11.3 kmh SW 14.0 mph22.5 kmh 30.16 in1021.3 mb 0.00 in0.0 mm 0.00 in0.0 mm 0.00 in0.0 mm
04:05 PM 33.4°F0.8°C 10.5°F-11.9°C 38% 6.0 mph S9.7 kmh S 14.0 mph22.5 kmh 30.16 in1021.3 mb 0.00 in0.0 mm 0.00 in0.0 mm 0.00 in0.0 mm
04:10 PM 33.1°F0.6°C 10.3°F-12.1°C 38% 7.0 mph SW11.3 kmh SW 15.0 mph24.1 kmh 30.16 in1021.3 mb 0.00 in0.0 mm 0.00 in0.0 mm 0.00 in0.0 mm
04:15 PM 33.2°F0.7°C 9.8°F-12.3°C 37% 11.0 mph SSW17.7 kmh SSW 18.0 mph29.0 kmh 30.17 in1021.7 mb 0.00 in0.0 mm 0.00 in0.0 mm 0.00 in0.0 mm
04:20 PM 33.2°F0.7°C 11.5°F-11.4°C 40% 7.0 mph SW11.3 kmh SW 18.0 mph29.0 kmh 30.17 in1021.7 mb 0.00 in0.0 mm 0.00 in0.0 mm 0.00 in0.0 mm
04:25 PM 33.2°F0.7°C 9.8°F-12.3°C 37% 17.0 mph S27.4 kmh S 18.0 mph29.0 kmh 30.17 in1021.7 mb 0.00 in0.0 mm 0.00 in0.0 mm 0.00 in0.0 mm
04:30 PM 33.2°F0.7°C 10.4°F-12.0°C 38% 6.0 mph SW9.7 kmh SW 18.0 mph29.0 kmh 30.17 in1021.7 mb 0.00 in0.0 mm 0.00 in0.0 mm 0.00 in0.0 mm
04:35 PM 33.1°F0.6°C 10.3°F-12.1°C 38% 4.0 mph SW6.4 kmh SW 18.0 mph29.0 kmh 30.17 in1021.7 mb 0.00 in0.0 mm 0.00 in0.0 mm 0.00 in0.0 mm
04:40 PM 33.4°F0.8°C 11.1°F-11.6°C 39% 9.0 mph SSW14.5 kmh SSW 12.0 mph19.3 kmh 30.17 in1021.7 mb 0.00 in0.0 mm 0.00 in0.0 mm 0.00 in0.0 mm
04:45 PM 33.1°F0.6°C 11.4°F-11.4°C 40% 5.0 mph SW8.0 kmh SW 12.0 mph19.3 kmh 30.17 in1021.7 mb 0.00 in0.0 mm 0.00 in0.0 mm 0.00 in0.0 mm
04:50 PM 33.0°F0.6°C 10.2°F-12.1°C 38% 5.0 mph SW8.0 kmh SW 12.0 mph19.3 kmh 30.17 in1021.7 mb 0.00 in0.0 mm 0.00 in0.0 mm 0.00 in0.0 mm
04:55 PM 33.1°F0.6°C 10.3°F-12.1°C 38% 9.0 mph SW14.5 kmh SW 11.0 mph17.7 kmh 30.17 in1021.7 mb 0.00 in0.0 mm 0.00 in0.0 mm 0.00 in0.0 mm
05:00 PM 33.0°F0.6°C 11.3°F-11.5°C 40% 3.0 mph SW4.8 kmh SW 12.0 mph19.3 kmh 30.17 in1021.7 mb 0.00 in0.0 mm 0.00 in0.0 mm 0.00 in0.0 mm
05:05 PM 32.9°F0.5°C 10.1°F-12.2°C 38% 7.0 mph SW11.3 kmh SW 12.0 mph19.3 kmh 30.17 in1021.7 mb 0.00 in0.0 mm 0.00 in0.0 mm 0.00 in0.0 mm
05:10 PM 33.0°F0.6°C 11.3°F-11.5°C 40% 7.0 mph SW11.3 kmh SW 13.0 mph20.9 kmh 30.17 in1021.7 mb 0.00 in0.0 mm 0.00 in0.0 mm 0.00 in0.0 mm
05:15 PM 32.7°F0.4°C 10.5°F-11.9°C 39% 6.0 mph SW9.7 kmh SW 15.0 mph24.1 kmh 30.18 in1022.0 mb 0.00 in0.0 mm 0.00 in0.0 mm 0.00 in0.0 mm
05:20 PM 32.8°F0.4°C 10.6°F-11.9°C 39% 10.0 mph S16.1 kmh S 15.0 mph24.1 kmh 30.18 in1022.0 mb 0.00 in0.0 mm 0.00 in0.0 mm 0.00 in0.0 mm
05:25 PM 32.8°F0.4°C 11.7°F-11.3°C 41% 5.0 mph SW8.0 kmh SW 8.0 mph12.9 kmh 30.18 in1022.0 mb 0.00 in0.0 mm 0.00 in0.0 mm 0.00 in0.0 mm
05:30 PM 32.7°F0.4°C 11.1°F-11.6°C 40% 8.0 mph SW12.9 kmh SW 12.0 mph19.3 kmh 30.18 in1022.0 mb 0.00 in0.0 mm 0.00 in0.0 mm 0.00 in0.0 mm
05:35 PM 32.7°F0.4°C 11.6°F-11.3°C 41% 4.0 mph SW6.4 kmh SW 12.0 mph19.3 kmh 30.18 in1022.0 mb 0.00 in0.0 mm 0.00 in0.0 mm 0.00 in0.0 mm
05:40 PM 32.6°F0.3°C 11.5°F-11.4°C 41% 8.0 mph SW12.9 kmh SW 11.0 mph17.7 kmh 30.18 in1022.0 mb 0.00 in0.0 mm 0.00 in0.0 mm 0.00 in0.0 mm
05:45 PM 32.5°F0.3°C 12.0°F-11.1°C 42% 10.0 mph WSW16.1 kmh WSW 11.0 mph17.7 kmh 30.18 in1022.0 mb 0.00 in0.0 mm 0.00 in0.0 mm 0.00 in0.0 mm
05:50 PM 32.3°F0.2°C 10.7°F-11.8°C 40% 2.0 mph SW3.2 kmh SW 13.0 mph20.9 kmh 30.18 in1022.0 mb 0.00 in0.0 mm 0.00 in0.0 mm 0.00 in0.0 mm
05:55 PM 32.1°F0.1°C 11.1°F-11.6°C 41% 3.0 mph SW4.8 kmh SW 7.0 mph11.3 kmh 30.18 in1022.0 mb 0.00 in0.0 mm 0.00 in0.0 mm 0.00 in0.0 mm
06:00 PM 31.9°F-0.1°C 11.4°F-11.4°C 42% 5.0 mph SW8.0 kmh SW 13.0 mph20.9 kmh 30.19 in1022.4 mb 0.00 in0.0 mm 0.00 in0.0 mm 0.00 in0.0 mm
06:05 PM 31.8°F-0.1°C 11.3°F-11.5°C 42% 8.0 mph SW12.9 kmh SW 13.0 mph20.9 kmh 30.19 in1022.4 mb 0.00 in0.0 mm 0.00 in0.0 mm 0.00 in0.0 mm
06:10 PM 31.7°F-0.2°C 11.3°F-11.5°C 42% 6.0 mph SW9.7 kmh SW 7.0 mph11.3 kmh 30.19 in1022.4 mb 0.00 in0.0 mm 0.00 in0.0 mm 0.00 in0.0 mm
06:15 PM 31.5°F-0.3°C 11.1°F-11.6°C 42% 5.0 mph SW8.0 kmh SW 8.0 mph12.9 kmh 30.19 in1022.4 mb 0.00 in0.0 mm 0.00 in0.0 mm 0.00 in0.0 mm
06:20 PM 31.5°F-0.3°C 11.1°F-11.6°C 42% 6.0 mph SW9.7 kmh SW 9.0 mph14.5 kmh 30.19 in1022.4 mb 0.00 in0.0 mm 0.00 in0.0 mm 0.00 in0.0 mm
06:25 PM 31.4°F-0.3°C 10.4°F-12.0°C 41% 2.0 mph SW3.2 kmh SW 6.0 mph9.7 kmh 30.19 in1022.4 mb 0.00 in0.0 mm 0.00 in0.0 mm 0.00 in0.0 mm
06:30 PM 31.4°F-0.3°C 11.0°F-11.7°C 42% 7.0 mph SW11.3 kmh SW 9.0 mph14.5 kmh 30.19 in1022.4 mb 0.00 in0.0 mm 0.00 in0.0 mm 0.00 in0.0 mm
06:35 PM 31.3°F-0.4°C 10.9°F-11.7°C 42% 5.0 mph SW8.0 kmh SW 10.0 mph16.1 kmh 30.19 in1022.4 mb 0.00 in0.0 mm 0.00 in0.0 mm 0.00 in0.0 mm
06:40 PM 31.3°F-0.4°C 11.4°F-11.4°C 43% 5.0 mph SW8.0 kmh SW 10.0 mph16.1 kmh 30.19 in1022.4 mb 0.00 in0.0 mm 0.00 in0.0 mm 0.00 in0.0 mm
06:45 PM 31.2°F-0.4°C 11.3°F-11.5°C 43% 5.0 mph SW8.0 kmh SW 10.0 mph16.1 kmh 30.19 in1022.4 mb 0.00 in0.0 mm 0.00 in0.0 mm 0.00 in0.0 mm
06:50 PM 31.2°F-0.4°C 11.8°F-11.2°C 44% 3.0 mph WSW4.8 kmh WSW 10.0 mph16.1 kmh 30.19 in1022.4 mb 0.00 in0.0 mm 0.00 in0.0 mm 0.00 in0.0 mm
06:55 PM 31.1°F-0.5°C 12.8°F-10.7°C 46% 5.0 mph WSW8.0 kmh WSW 8.0 mph12.9 kmh 30.20 in1022.7 mb 0.00 in0.0 mm 0.00 in0.0 mm 0.00 in0.0 mm
07:00 PM 30.9°F-0.6°C 12.1°F-11.1°C 45% 4.0 mph WSW6.4 kmh WSW 8.0 mph12.9 kmh 30.20 in1022.7 mb 0.00 in0.0 mm 0.00 in0.0 mm 0.00 in0.0 mm
07:05 PM 30.9°F-0.6°C 13.1°F-10.5°C 47% 1.0 mph WSW1.6 kmh WSW 8.0 mph12.9 kmh 30.20 in1022.7 mb 0.00 in0.0 mm 0.00 in0.0 mm 0.00 in0.0 mm
07:10 PM 30.8°F-0.7°C 12.5°F-10.8°C 46% 2.0 mph WSW3.2 kmh WSW 7.0 mph11.3 kmh 30.20 in1022.7 mb 0.00 in0.0 mm 0.00 in0.0 mm 0.00 in0.0 mm
07:15 PM 30.6°F-0.8°C 12.3°F-10.9°C 46% 5.0 mph WSW8.0 kmh WSW 9.0 mph14.5 kmh 30.21 in1023.0 mb 0.00 in0.0 mm 0.00 in0.0 mm 0.00 in0.0 mm
07:20 PM 30.6°F-0.8°C 11.8°F-11.2°C 45% 5.0 mph WSW8.0 kmh WSW 9.0 mph14.5 kmh 30.21 in1023.0 mb 0.00 in0.0 mm 0.00 in0.0 mm 0.00 in0.0 mm
07:25 PM 30.5°F-0.8°C 11.7°F-11.3°C 45% 7.0 mph WSW11.3 kmh WSW 9.0 mph14.5 kmh 30.21 in1023.0 mb 0.00 in0.0 mm 0.00 in0.0 mm 0.00 in0.0 mm
07:30 PM 30.3°F-0.9°C 11.5°F-11.4°C 45% 8.0 mph WSW12.9 kmh WSW 9.0 mph14.5 kmh 30.21 in1023.0 mb 0.00 in0.0 mm 0.00 in0.0 mm 0.00 in0.0 mm
07:35 PM 30.2°F-1.0°C 10.9°F-11.7°C 44% 7.0 mph WSW11.3 kmh WSW 10.0 mph16.1 kmh 30.22 in1023.4 mb 0.00 in0.0 mm 0.00 in0.0 mm 0.00 in0.0 mm
07:40 PM 30.1°F-1.1°C 10.8°F-11.8°C 44% 3.0 mph WSW4.8 kmh WSW 8.0 mph12.9 kmh 30.22 in1023.4 mb 0.00 in0.0 mm 0.00 in0.0 mm 0.00 in0.0 mm
07:45 PM 30.0°F-1.1°C 10.7°F-11.8°C 44% 3.0 mph WSW4.8 kmh WSW 10.0 mph16.1 kmh 30.22 in1023.4 mb 0.00 in0.0 mm 0.00 in0.0 mm 0.00 in0.0 mm
07:50 PM 29.8°F-1.2°C 10.1°F-12.2°C 43% 3.0 mph WSW4.8 kmh WSW 10.0 mph16.1 kmh 30.22 in1023.4 mb 0.00 in0.0 mm 0.00 in0.0 mm 0.00 in0.0 mm
07:55 PM 29.7°F-1.3°C 11.0°F-11.7°C 45% 7.0 mph WSW11.3 kmh WSW 7.0 mph11.3 kmh 30.22 in1023.4 mb 0.00 in0.0 mm 0.00 in0.0 mm 0.00 in0.0 mm
08:00 PM 29.6°F-1.3°C 10.4°F-12.0°C 44% 4.0 mph WSW6.4 kmh WSW 8.0 mph12.9 kmh 30.22 in1023.4 mb 0.00 in0.0 mm 0.00 in0.0 mm 0.00 in0.0 mm
08:05 PM 29.5°F-1.4°C 10.3°F-12.1°C 44% 3.0 mph WSW4.8 kmh WSW 10.0 mph16.1 kmh 30.22 in1023.4 mb 0.00 in0.0 mm 0.00 in0.0 mm 0.00 in0.0 mm
08:10 PM 29.4°F-1.4°C 10.7°F-11.8°C 45% 7.0 mph WSW11.3 kmh WSW 9.0 mph14.5 kmh 30.22 in1023.4 mb 0.00 in0.0 mm 0.00 in0.0 mm 0.00 in0.0 mm
08:15 PM 29.3°F-1.5°C 10.6°F-11.9°C 45% 3.0 mph WSW4.8 kmh WSW 10.0 mph16.1 kmh 30.22 in1023.4 mb 0.00 in0.0 mm 0.00 in0.0 mm 0.00 in0.0 mm
08:20 PM 29.2°F-1.6°C 10.5°F-11.9°C 45% 4.0 mph WSW6.4 kmh WSW 10.0 mph16.1 kmh 30.23 in1023.7 mb 0.00 in0.0 mm 0.00 in0.0 mm 0.00 in0.0 mm
08:25 PM 29.2°F-1.6°C 11.0°F-11.7°C 46% 7.0 mph WSW11.3 kmh WSW 7.0 mph11.3 kmh 30.23 in1023.7 mb 0.00 in0.0 mm 0.00 in0.0 mm 0.00 in0.0 mm
08:30 PM 29.1°F-1.6°C 10.9°F-11.7°C 46% 5.0 mph WSW8.0 kmh WSW 10.0 mph16.1 kmh 30.23 in1023.7 mb 0.00 in0.0 mm 0.00 in0.0 mm 0.00 in0.0 mm
08:35 PM 29.1°F-1.6°C 10.4°F-12.0°C 45% 4.0 mph WSW6.4 kmh WSW 10.0 mph16.1 kmh 30.23 in1023.7 mb 0.00 in0.0 mm 0.00 in0.0 mm 0.00 in0.0 mm
08:40 PM 29.0°F-1.7°C 10.8°F-11.8°C 46% 5.0 mph WSW8.0 kmh WSW 9.0 mph14.5 kmh 30.23 in1023.7 mb 0.00 in0.0 mm 0.00 in0.0 mm 0.00 in0.0 mm
08:45 PM 29.0°F-1.7°C 10.3°F-12.1°C 45% 1.0 mph WSW1.6 kmh WSW 9.0 mph14.5 kmh 30.23 in1023.7 mb 0.00 in0.0 mm 0.00 in0.0 mm 0.00 in0.0 mm
08:50 PM 28.9°F-1.7°C 10.7°F-11.8°C 46% 3.0 mph WSW4.8 kmh WSW 9.0 mph14.5 kmh 30.23 in1023.7 mb 0.00 in0.0 mm 0.00 in0.0 mm 0.00 in0.0 mm
08:55 PM 28.8°F-1.8°C 10.2°F-12.1°C 45% 3.0 mph WSW4.8 kmh WSW 4.0 mph6.4 kmh 30.23 in1023.7 mb 0.00 in0.0 mm 0.00 in0.0 mm 0.00 in0.0 mm
09:00 PM 28.7°F-1.8°C 10.6°F-11.9°C 46% 1.0 mph WSW1.6 kmh WSW 9.0 mph14.5 kmh 30.24 in1024.0 mb 0.00 in0.0 mm 0.00 in0.0 mm 0.00 in0.0 mm
09:05 PM 28.6°F-1.9°C 10.5°F-11.9°C 46% 5.0 mph WSW8.0 kmh WSW 10.0 mph16.1 kmh 30.24 in1024.0 mb 0.00 in0.0 mm 0.00 in0.0 mm 0.00 in0.0 mm
09:10 PM 28.6°F-1.9°C 10.9°F-11.7°C 47% 4.0 mph WSW6.4 kmh WSW 10.0 mph16.1 kmh 30.24 in1024.0 mb 0.00 in0.0 mm 0.00 in0.0 mm 0.00 in0.0 mm
09:15 PM 28.5°F-1.9°C 10.4°F-12.0°C 46% 4.0 mph WSW6.4 kmh WSW 10.0 mph16.1 kmh 30.24 in1024.0 mb 0.00 in0.0 mm 0.00 in0.0 mm 0.00 in0.0 mm
09:20 PM 28.5°F-1.9°C 10.9°F-11.7°C 47% 8.0 mph WSW12.9 kmh WSW 10.0 mph16.1 kmh 30.25 in1024.4 mb 0.00 in0.0 mm 0.00 in0.0 mm 0.00 in0.0 mm
09:25 PM 28.5°F-1.9°C 10.9°F-11.7°C 47% 5.0 mph WSW8.0 kmh WSW 12.0 mph19.3 kmh 30.25 in1024.4 mb 0.00 in0.0 mm 0.00 in0.0 mm 0.00 in0.0 mm
09:30 PM 28.6°F-1.9°C 11.9°F-11.2°C 49% 7.0 mph WSW11.3 kmh WSW 12.0 mph19.3 kmh 30.25 in1024.4 mb 0.00 in0.0 mm 0.00 in0.0 mm 0.00 in0.0 mm
09:35 PM 28.7°F-1.8°C 12.4°F-10.9°C 50% 3.0 mph WSW4.8 kmh WSW 12.0 mph19.3 kmh 30.25 in1024.4 mb 0.00 in0.0 mm 0.00 in0.0 mm 0.00 in0.0 mm
09:40 PM 28.6°F-1.9°C 11.9°F-11.2°C 49% 9.0 mph WSW14.5 kmh WSW 9.0 mph14.5 kmh 30.25 in1024.4 mb 0.00 in0.0 mm 0.00 in0.0 mm 0.00 in0.0 mm
09:45 PM 28.5°F-1.9°C 12.2°F-11.0°C 50% 5.0 mph SW8.0 kmh SW 11.0 mph17.7 kmh 30.25 in1024.4 mb 0.00 in0.0 mm 0.00 in0.0 mm 0.00 in0.0 mm
09:50 PM 28.4°F-2.0°C 11.2°F-11.6°C 48% 8.0 mph WSW12.9 kmh WSW 11.0 mph17.7 kmh 30.25 in1024.4 mb 0.00 in0.0 mm 0.00 in0.0 mm 0.00 in0.0 mm
09:55 PM 28.3°F-2.1°C 11.6°F-11.3°C 49% 8.0 mph WSW12.9 kmh WSW 10.0 mph16.1 kmh 30.25 in1024.4 mb 0.00 in0.0 mm 0.00 in0.0 mm 0.00 in0.0 mm
10:00 PM 28.3°F-2.1°C 11.1°F-11.6°C 48% 3.0 mph WSW4.8 kmh WSW 10.0 mph16.1 kmh 30.26 in1024.7 mb 0.00 in0.0 mm 0.00 in0.0 mm 0.00 in0.0 mm
10:05 PM 28.1°F-2.2°C 11.0°F-11.7°C 48% 3.0 mph WSW4.8 kmh WSW 10.0 mph16.1 kmh 30.26 in1024.7 mb 0.00 in0.0 mm 0.00 in0.0 mm 0.00 in0.0 mm
10:10 PM 27.9°F-2.3°C 10.8°F-11.8°C 48% 3.0 mph WSW4.8 kmh WSW 7.0 mph11.3 kmh 30.27 in1025.1 mb 0.00 in0.0 mm 0.00 in0.0 mm 0.00 in0.0 mm
10:15 PM 27.8°F-2.3°C 10.2°F-12.1°C 47% 7.0 mph WSW11.3 kmh WSW 8.0 mph12.9 kmh 30.27 in1025.1 mb 0.00 in0.0 mm 0.00 in0.0 mm 0.00 in0.0 mm
10:20 PM 27.7°F-2.4°C 10.6°F-11.9°C 48% 7.0 mph W11.3 kmh W 9.0 mph14.5 kmh 30.27 in1025.1 mb 0.00 in0.0 mm 0.00 in0.0 mm 0.00 in0.0 mm
10:25 PM 27.5°F-2.5°C 10.4°F-12.0°C 48% 4.0 mph W6.4 kmh W 7.0 mph11.3 kmh 30.27 in1025.1 mb 0.00 in0.0 mm 0.00 in0.0 mm 0.00 in0.0 mm
10:30 PM 27.4°F-2.6°C 10.3°F-12.1°C 48% 4.0 mph W6.4 kmh W 8.0 mph12.9 kmh 30.27 in1025.1 mb 0.00 in0.0 mm 0.00 in0.0 mm 0.00 in0.0 mm
10:35 PM 27.4°F-2.6°C 10.3°F-12.1°C 48% 6.0 mph W9.7 kmh W 8.0 mph12.9 kmh 30.27 in1025.1 mb 0.00 in0.0 mm 0.00 in0.0 mm 0.00 in0.0 mm
10:40 PM 27.3°F-2.6°C 10.2°F-12.1°C 48% 2.0 mph W3.2 kmh W 8.0 mph12.9 kmh 30.27 in1025.1 mb 0.00 in0.0 mm 0.00 in0.0 mm 0.00 in0.0 mm
10:45 PM 27.2°F-2.7°C 10.1°F-12.2°C 48% 3.0 mph WSW4.8 kmh WSW 10.0 mph16.1 kmh 30.27 in1025.1 mb 0.00 in0.0 mm 0.00 in0.0 mm 0.00 in0.0 mm
10:50 PM 27.1°F-2.7°C 10.0°F-12.2°C 48% 7.0 mph WSW11.3 kmh WSW 10.0 mph16.1 kmh 30.27 in1025.1 mb 0.00 in0.0 mm 0.00 in0.0 mm 0.00 in0.0 mm
10:55 PM 27.1°F-2.7°C 10.5°F-11.9°C 49% 4.0 mph WSW6.4 kmh WSW 10.0 mph16.1 kmh 30.27 in1025.1 mb 0.00 in0.0 mm 0.00 in0.0 mm 0.00 in0.0 mm
11:00 PM 27.0°F-2.8°C 9.9°F-12.3°C 48% 4.0 mph WSW6.4 kmh WSW 10.0 mph16.1 kmh 30.28 in1025.4 mb 0.00 in0.0 mm 0.00 in0.0 mm 0.00 in0.0 mm
11:05 PM 26.9°F-2.8°C 9.9°F-12.3°C 48% 2.0 mph WSW3.2 kmh WSW 10.0 mph16.1 kmh 30.28 in1025.4 mb 0.00 in0.0 mm 0.00 in0.0 mm 0.00 in0.0 mm
11:10 PM 26.8°F-2.9°C 10.2°F-12.1°C 49% 1.0 mph WSW1.6 kmh WSW 5.0 mph8.0 kmh 30.28 in1025.4 mb 0.00 in0.0 mm 0.00 in0.0 mm 0.00 in0.0 mm
11:15 PM 26.8°F-2.9°C 10.2°F-12.1°C 49% 1.0 mph WSW1.6 kmh WSW 7.0 mph11.3 kmh 30.28 in1025.4 mb 0.00 in0.0 mm 0.00 in0.0 mm 0.00 in0.0 mm
11:20 PM 26.7°F-2.9°C 10.1°F-12.2°C 49% 3.0 mph WSW4.8 kmh WSW 7.0 mph11.3 kmh 30.28 in1025.4 mb 0.00 in0.0 mm 0.00 in0.0 mm 0.00 in0.0 mm
11:25 PM 26.7°F-2.9°C 10.1°F-12.2°C 49% 3.0 mph WSW4.8 kmh WSW 7.0 mph11.3 kmh 30.29 in1025.7 mb 0.00 in0.0 mm 0.00 in0.0 mm 0.00 in0.0 mm
11:30 PM 26.6°F-3.0°C 10.5°F-11.9°C 50% 4.0 mph WSW6.4 kmh WSW 7.0 mph11.3 kmh 30.29 in1025.7 mb 0.00 in0.0 mm 0.00 in0.0 mm 0.00 in0.0 mm
11:35 PM 26.6°F-3.0°C 10.5°F-11.9°C 50% 4.0 mph WSW6.4 kmh WSW 7.0 mph11.3 kmh 30.28 in1025.4 mb 0.00 in0.0 mm 0.00 in0.0 mm 0.00 in0.0 mm
11:40 PM 26.5°F-3.1°C 10.4°F-12.0°C 50% 1.0 mph WSW1.6 kmh WSW 5.0 mph8.0 kmh 30.29 in1025.7 mb 0.00 in0.0 mm 0.00 in0.0 mm 0.00 in0.0 mm
11:45 PM 26.4°F-3.1°C 10.3°F-12.1°C 50% 4.0 mph WSW6.4 kmh WSW 7.0 mph11.3 kmh 30.28 in1025.4 mb 0.00 in0.0 mm 0.00 in0.0 mm 0.00 in0.0 mm
11:50 PM 26.3°F-3.2°C 10.2°F-12.1°C 50% 7.0 mph WSW11.3 kmh WSW 8.0 mph12.9 kmh 30.28 in1025.4 mb 0.00 in0.0 mm 0.00 in0.0 mm 0.00 in0.0 mm
11:55 PM 26.3°F-3.2°C 9.8°F-12.3°C 49% 4.0 mph WSW6.4 kmh WSW 4.0 mph6.4 kmh 30.28 in1025.4 mb 0.00 in0.0 mm 0.00 in0.0 mm 0.00 in0.0 mm